Time;durP1;ratioP1;P1;durP2;ratioP2;P2;SDS_P1;SDS_P2;PMS_P1;PMS_P2;Temp;Humidity;BMP_temperature;BMP_pressure;BME280_temperature;BME280_humidity;BME280_pressure;Samples;Min_cycle;Max_cycle;Signal;HPM_P1;HPM_P2
2024/03/06 00:00:11;;;;;;;56.25;26.80;;;7.00;99.90;;;;;;7594301;19;20018;-75
2024/03/06 00:02:44;;;;;;;52.38;26.02;;;7.00;99.90;;;;;;7596078;19;20017;-76
2024/03/06 00:05:17;;;;;;;53.08;26.55;;;7.10;99.90;;;;;;7581821;19;20411;-74
2024/03/06 00:07:49;;;;;;;50.53;26.67;;;7.10;99.90;;;;;;7592906;19;20068;-76
2024/03/06 00:10:21;;;;;;;53.45;26.95;;;7.10;99.90;;;;;;7594521;19;21055;-76
2024/03/06 00:12:53;;;;;;;51.38;26.98;;;7.10;99.90;;;;;;7597841;19;20030;-76
2024/03/06 00:15:27;;;;;;;48.47;26.10;;;7.00;99.90;;;;;;7592997;19;20018;-75
2024/03/06 00:18:00;;;;;;;56.17;27.13;;;7.00;99.90;;;;;;7600346;19;20022;-75
2024/03/06 00:20:33;;;;;;;67.72;30.42;;;6.90;99.90;;;;;;7585070;19;20098;-75
2024/03/06 00:23:05;;;;;;;70.68;30.60;;;7.00;99.90;;;;;;7586689;19;20026;-75
2024/03/06 00:25:37;;;;;;;58.60;28.42;;;6.90;99.90;;;;;;7571966;19;20022;-76
2024/03/06 00:28:10;;;;;;;57.33;28.17;;;6.90;99.90;;;;;;7601701;19;20041;-76
2024/03/06 00:30:43;;;;;;;56.80;29.05;;;6.90;99.90;;;;;;7606930;19;20094;-75
2024/03/06 00:33:15;;;;;;;61.42;31.00;;;6.90;99.90;;;;;;7604502;19;20043;-76
2024/03/06 00:35:47;;;;;;;51.65;30.50;;;7.00;99.90;;;;;;7603851;19;20014;-75
2024/03/06 00:38:19;;;;;;;92.03;34.45;;;7.00;99.90;;;;;;7599990;19;20082;-75
2024/03/06 00:40:52;;;;;;;54.67;27.60;;;6.90;99.90;;;;;;7589663;19;20025;-76
2024/03/06 00:43:24;;;;;;;51.07;25.97;;;6.90;99.90;;;;;;7590860;19;20630;-75
2024/03/06 00:45:57;;;;;;;64.85;30.67;;;6.90;99.90;;;;;;7589375;19;20030;-75
2024/03/06 00:48:29;;;;;;;55.58;26.83;;;7.00;99.90;;;;;;7589901;19;20022;-74
2024/03/06 00:51:02;;;;;;;56.40;28.53;;;7.00;99.90;;;;;;7585399;19;20022;-74
2024/03/06 00:53:37;;;;;;;62.28;29.10;;;6.90;99.90;;;;;;7594902;19;20022;-74
2024/03/06 00:56:09;;;;;;;61.00;27.90;;;6.90;99.90;;;;;;7608454;19;20051;-74
2024/03/06 00:58:42;;;;;;;59.72;29.15;;;6.90;99.90;;;;;;7610573;19;20370;-74
2024/03/06 01:01:16;;;;;;;63.42;30.58;;;6.90;99.90;;;;;;7607974;19;20015;-75
2024/03/06 01:03:48;;;;;;;51.55;27.17;;;6.90;99.90;;;;;;7589611;19;20050;-75
2024/03/06 01:06:21;;;;;;;58.65;28.50;;;6.90;99.90;;;;;;7604432;19;20022;-76
2024/03/06 01:08:54;;;;;;;50.30;25.95;;;7.00;99.90;;;;;;7607312;19;20014;-76
2024/03/06 01:11:26;;;;;;;55.47;27.67;;;6.90;99.90;;;;;;7602887;19;20058;-76
2024/03/06 01:13:59;;;;;;;52.33;27.33;;;6.90;99.90;;;;;;7596854;19;20018;-75
2024/03/06 01:16:31;;;;;;;46.60;24.93;;;7.00;99.90;;;;;;7602751;19;20026;-75
2024/03/06 01:19:04;;;;;;;60.40;28.47;;;7.00;99.90;;;;;;7610426;19;20066;-75
2024/03/06 01:21:38;;;;;;;51.05;26.23;;;7.00;99.90;;;;;;7613667;19;20315;-76
2024/03/06 01:24:11;;;;;;;54.92;28.00;;;7.00;99.90;;;;;;7615461;19;20014;-76
2024/03/06 01:26:43;;;;;;;53.08;26.48;;;7.00;99.90;;;;;;7613926;19;20014;-75
2024/03/06 01:29:15;;;;;;;56.08;27.30;;;7.00;99.90;;;;;;7620582;19;20014;-75
2024/03/06 01:31:48;;;;;;;53.60;27.80;;;7.00;99.90;;;;;;7613243;19;20026;-75
2024/03/06 01:34:22;;;;;;;56.47;26.65;;;6.90;99.90;;;;;;7612066;19;20019;-75
2024/03/06 01:36:54;;;;;;;55.80;26.33;;;6.90;99.90;;;;;;7613122;19;20025;-75
2024/03/06 01:39:26;;;;;;;70.38;31.45;;;7.00;99.90;;;;;;7588732;19;20046;-75
2024/03/06 01:41:58;;;;;;;67.80;30.50;;;6.80;99.90;;;;;;7602861;19;20053;-75
2024/03/06 01:44:31;;;;;;;61.75;29.42;;;6.80;99.90;;;;;;7591620;19;20018;-75
2024/03/06 01:47:03;;;;;;;59.88;29.45;;;6.80;99.90;;;;;;7600589;19;20026;-75
2024/03/06 01:49:36;;;;;;;61.60;29.90;;;6.80;99.90;;;;;;7604313;19;20031;-75
2024/03/06 01:52:17;;;;;;;70.38;30.33;;;6.80;99.90;;;;;;7604139;19;20019;-75
2024/03/06 01:54:50;;;;;;;64.28;30.23;;;6.80;99.90;;;;;;7583821;19;20022;-75
2024/03/06 01:57:23;;;;;;;66.43;31.00;;;6.80;99.90;;;;;;7601515;19;20022;-75
2024/03/06 01:59:55;;;;;;;77.53;32.22;;;6.80;99.90;;;;;;7602016;19;20048;-75
2024/03/06 02:02:27;;;;;;;56.50;28.58;;;6.90;99.90;;;;;;7599756;19;20022;-74
2024/03/06 02:05:00;;;;;;;60.80;30.05;;;6.90;99.90;;;;;;7600032;19;20010;-74
2024/03/06 02:07:33;;;;;;;71.95;31.92;;;6.80;99.90;;;;;;7602104;19;20089;-74
2024/03/06 02:10:08;;;;;;;64.45;30.02;;;6.80;99.90;;;;;;7591507;19;20014;-74
2024/03/06 02:12:41;;;;;;;64.78;31.80;;;6.80;99.90;;;;;;7597769;19;20022;-75
2024/03/06 02:15:14;;;;;;;90.88;33.80;;;6.80;99.90;;;;;;7607996;19;20396;-74
2024/03/06 02:17:46;;;;;;;116.13;37.90;;;6.80;99.90;;;;;;7596313;19;20124;-74
2024/03/06 02:20:25;;;;;;;55.58;20.08;;;6.70;99.90;;;;;;7595281;19;20039;-73
2024/03/06 02:22:57;;;;;;;14.23;7.47;;;6.60;99.90;;;;;;7604313;19;20060;-74
2024/03/06 02:25:30;;;;;;;10.63;6.85;;;6.40;99.90;;;;;;7588591;19;21035;-74
2024/03/06 02:28:02;;;;;;;14.50;8.20;;;6.00;99.90;;;;;;7603532;19;20007;-74
2024/03/06 02:30:37;;;;;;;9.07;5.78;;;6.00;99.90;;;;;;7606281;19;20025;-74
2024/03/06 02:33:10;;;;;;;10.48;4.88;;;5.90;99.90;;;;;;7595592;19;20039;-75
2024/03/06 02:35:44;;;;;;;6.88;4.75;;;5.90;99.90;;;;;;7594638;19;20022;-74
2024/03/06 02:38:16;;;;;;;8.05;4.38;;;5.80;99.90;;;;;;7603496;19;20063;-75
2024/03/06 02:40:49;;;;;;;5.90;3.78;;;5.60;99.90;;;;;;7603237;19;20021;-76
2024/03/06 02:43:21;;;;;;;4.75;2.97;;;5.40;99.90;;;;;;7576454;19;21077;-75
2024/03/06 02:45:53;;;;;;;4.35;3.22;;;5.20;99.90;;;;;;7575701;19;20115;-76
2024/03/06 02:48:25;;;;;;;3.95;2.65;;;5.10;99.90;;;;;;7598935;19;20283;-73
2024/03/06 02:50:58;;;;;;;4.38;2.45;;;5.00;99.90;;;;;;7598405;19;20022;-74
2024/03/06 02:53:31;;;;;;;3.55;2.53;;;4.90;99.90;;;;;;7599405;19;20102;-76
2024/03/06 02:56:05;;;;;;;4.55;2.70;;;4.70;99.90;;;;;;7599611;19;20011;-75
2024/03/06 02:58:37;;;;;;;;;;;4.60;99.90;;;;;;7601769;19;20022;-73
2024/03/06 03:01:10;;;;;;;4.95;2.83;;;4.50;99.90;;;;;;7595809;19;20755;-76
2024/03/06 03:03:44;;;;;;;4.30;2.30;;;4.40;99.90;;;;;;7593399;19;20161;-73
2024/03/06 03:06:16;;;;;;;3.75;2.33;;;4.40;99.90;;;;;;7601202;19;20497;-75
2024/03/06 03:08:48;;;;;;;3.70;2.53;;;4.30;99.90;;;;;;7589312;19;20040;-76
2024/03/06 03:11:20;;;;;;;3.65;2.60;;;4.20;99.90;;;;;;7604219;19;20067;-76
2024/03/06 03:13:52;;;;;;;7.60;4.07;;;4.20;99.90;;;;;;7597658;19;20034;-76
2024/03/06 03:16:25;;;;;;;6.70;4.13;;;4.00;99.90;;;;;;7598057;19;20045;-75
2024/03/06 03:18:57;;;;;;;11.75;6.72;;;4.00;99.90;;;;;;7588615;19;20035;-76
2024/03/06 03:21:29;;;;;;;11.73;7.18;;;4.00;99.90;;;;;;7589713;19;20801;-76
2024/03/06 03:24:03;;;;;;;11.20;6.60;;;4.00;99.90;;;;;;7572357;19;20855;-76
2024/03/06 03:26:36;;;;;;;8.98;5.85;;;4.00;99.90;;;;;;7590374;19;20026;-73
2024/03/06 03:29:09;;;;;;;5.72;3.85;;;4.00;99.90;;;;;;7592016;19;20160;-76
2024/03/06 03:31:42;;;;;;;6.72;4.38;;;4.00;99.90;;;;;;7566362;19;20026;-76
2024/03/06 03:34:14;;;;;;;5.43;3.57;;;4.10;99.90;;;;;;7578539;19;20044;-76
2024/03/06 03:36:47;;;;;;;4.32;2.78;;;4.10;99.90;;;;;;7584204;19;20039;-74
2024/03/06 03:39:21;;;;;;;4.43;2.70;;;4.10;99.90;;;;;;7591023;19;20089;-77
2024/03/06 03:41:54;;;;;;;5.82;2.72;;;4.20;99.90;;;;;;7583060;19;20085;-73
2024/03/06 03:44:26;;;;;;;3.15;2.33;;;4.10;99.90;;;;;;7588982;19;20029;-76
2024/03/06 03:46:59;;;;;;;4.40;2.78;;;4.10;99.90;;;;;;7586185;19;20014;-76
2024/03/06 03:49:31;;;;;;;3.77;2.87;;;4.00;99.90;;;;;;7593249;19;20015;-76
2024/03/06 03:52:03;;;;;;;3.67;2.50;;;4.00;99.90;;;;;;7592217;19;20511;-76
2024/03/06 03:54:36;;;;;;;4.78;3.05;;;4.00;99.90;;;;;;7587402;19;20026;-75
2024/03/06 03:57:09;;;;;;;2.95;2.05;;;4.00;99.90;;;;;;7586085;19;20056;-75
2024/03/06 03:59:41;;;;;;;3.40;2.25;;;3.90;99.90;;;;;;7588665;19;20022;-75
2024/03/06 04:02:14;;;;;;;4.45;3.13;;;3.90;99.90;;;;;;7569760;19;20007;-75
2024/03/06 04:04:46;;;;;;;2.57;2.10;;;3.90;99.90;;;;;;7590702;19;20046;-75
2024/03/06 04:07:18;;;;;;;4.43;3.00;;;3.90;99.90;;;;;;7571737;19;20031;-75
2024/03/06 04:09:51;;;;;;;5.93;3.20;;;4.00;99.90;;;;;;7584613;19;20138;-76
2024/03/06 04:12:24;;;;;;;4.25;3.05;;;4.00;99.90;;;;;;7591144;19;20014;-75
2024/03/06 04:14:56;;;;;;;5.05;3.22;;;4.00;99.90;;;;;;7595485;19;21042;-75
2024/03/06 04:17:29;;;;;;;4.93;3.20;;;3.90;99.90;;;;;;7587926;19;20018;-75
2024/03/06 04:20:01;;;;;;;4.18;2.97;;;3.90;99.90;;;;;;7589261;19;20327;-75
2024/03/06 04:22:34;;;;;;;4.07;2.95;;;4.10;99.90;;;;;;7601872;19;20061;-75
2024/03/06 04:25:07;;;;;;;4.45;2.90;;;4.10;99.90;;;;;;7585001;19;20434;-75
2024/03/06 04:27:39;;;;;;;4.20;2.80;;;4.00;99.90;;;;;;7580432;19;20479;-75
2024/03/06 04:30:12;;;;;;;4.35;3.00;;;4.00;99.90;;;;;;7592765;19;20011;-77
2024/03/06 04:32:44;;;;;;;5.63;3.40;;;4.00;99.90;;;;;;7587898;19;20015;-75
2024/03/06 04:35:16;;;;;;;4.88;3.63;;;4.00;99.90;;;;;;7578707;19;20486;-76
2024/03/06 04:37:49;;;;;;;5.38;3.80;;;4.00;99.90;;;;;;7573830;19;20100;-76
2024/03/06 04:40:22;;;;;;;6.15;3.65;;;3.90;99.90;;;;;;7587460;19;20078;-76
2024/03/06 04:42:54;;;;;;;6.38;3.33;;;3.80;99.90;;;;;;7583818;19;20023;-76
2024/03/06 04:45:28;;;;;;;5.63;4.00;;;3.90;99.90;;;;;;7588368;19;20745;-76
2024/03/06 04:48:00;;;;;;;;;;;3.80;99.90;;;;;;7570970;19;20029;-76
2024/03/06 04:50:33;;;;;;;8.18;5.50;;;3.80;99.90;;;;;;7597259;19;19918;-76
2024/03/06 04:53:05;;;;;;;5.57;3.35;;;3.70;99.90;;;;;;7583543;19;20050;-77
2024/03/06 04:55:38;;;;;;;8.27;4.68;;;3.80;99.90;;;;;;7589195;19;20014;-76
2024/03/06 04:58:10;;;;;;;9.63;6.50;;;3.70;99.90;;;;;;7590463;19;20023;-76
2024/03/06 05:00:42;;;;;;;10.02;6.10;;;3.70;99.90;;;;;;7559672;19;20010;-76
2024/03/06 05:03:15;;;;;;;11.35;6.13;;;3.70;99.90;;;;;;7586213;19;20530;-77
2024/03/06 05:06:02;;;;;;;7.03;4.68;;;3.70;99.90;;;;;;7557147;19;20097;-76
2024/03/06 05:08:48;;;;;;;9.80;6.20;;;3.60;99.90;;;;;;7566600;19;20441;-76
2024/03/06 05:11:34;;;;;;;7.13;5.43;;;3.60;99.90;;;;;;7583024;19;20043;-76
2024/03/06 05:14:20;;;;;;;6.85;4.50;;;3.60;99.90;;;;;;7562106;19;20022;-76
2024/03/06 05:17:06;;;;;;;5.63;3.30;;;3.70;99.90;;;;;;7573149;19;20098;-76
2024/03/06 05:19:54;;;;;;;3.22;2.40;;;3.60;99.90;;;;;;7588318;19;20022;-77
2024/03/06 05:22:40;;;;;;;7.10;3.58;;;3.60;99.90;;;;;;7572282;19;20975;-76
2024/03/06 05:25:26;;;;;;;4.95;3.60;;;3.70;99.90;;;;;;7580360;19;20010;-77
2024/03/06 05:28:13;;;;;;;5.82;4.20;;;3.60;99.90;;;;;;7575886;19;20096;-76
2024/03/06 05:31:00;;;;;;;5.03;3.30;;;3.60;99.90;;;;;;7569659;19;20056;-77
2024/03/06 05:33:49;;;;;;;3.95;2.38;;;3.60;99.90;;;;;;7583946;19;20985;-76
2024/03/06 05:36:35;;;;;;;3.38;2.33;;;3.70;99.90;;;;;;7567908;19;20540;-77
2024/03/06 05:39:22;;;;;;;4.28;3.00;;;3.70;99.90;;;;;;7582458;19;20101;-76
2024/03/06 05:42:08;;;;;;;5.25;3.17;;;3.60;99.90;;;;;;7571738;19;20958;-76
2024/03/06 05:44:55;;;;;;;7.15;3.80;;;3.60;99.90;;;;;;7585041;19;20747;-77
2024/03/06 05:47:41;;;;;;;11.35;6.28;;;3.50;99.90;;;;;;7586475;19;20010;-75
2024/03/06 05:50:28;;;;;;;4.80;2.50;;;3.40;99.90;;;;;;7569123;19;20036;-76
2024/03/06 05:53:14;;;;;;;4.30;2.70;;;3.30;99.90;;;;;;7565091;19;20504;-78
2024/03/06 05:56:00;;;;;;;3.63;2.47;;;3.30;99.90;;;;;;7567081;19;20011;-78
2024/03/06 05:58:49;;;;;;;3.90;2.83;;;3.20;99.90;;;;;;7581713;19;20560;-75
2024/03/06 06:01:23;;;;;;;4.30;2.60;;;3.30;99.90;;;;;;7551803;19;20850;-77
2024/03/06 06:03:56;;;;;;;4.15;2.50;;;3.40;99.90;;;;;;7560898;19;20098;-75
2024/03/06 06:06:29;;;;;;;3.10;2.40;;;3.50;99.90;;;;;;7560226;19;20672;-75
2024/03/06 06:09:05;;;;;;;4.10;2.53;;;3.50;99.90;;;;;;7568359;19;20011;-76
2024/03/06 06:11:38;;;;;;;5.05;3.20;;;3.50;99.90;;;;;;7560800;19;20104;-76
2024/03/06 06:14:12;;;;;;;4.38;3.30;;;3.50;99.90;;;;;;7553322;19;20052;-76
2024/03/06 06:16:44;;;;;;;4.20;2.97;;;3.50;99.90;;;;;;7565742;19;20025;-75
2024/03/06 06:19:16;;;;;;;4.93;3.30;;;3.50;99.90;;;;;;7553739;19;20019;-75
2024/03/06 06:21:49;;;;;;;6.10;3.70;;;3.50;99.90;;;;;;7559499;19;20011;-75
2024/03/06 06:24:21;;;;;;;7.60;3.80;;;3.50;99.90;;;;;;7574351;19;20014;-76
2024/03/06 06:26:54;;;;;;;5.57;4.25;;;3.50;99.90;;;;;;7578946;19;20018;-76
2024/03/06 06:29:30;;;;;;;6.07;3.70;;;3.40;99.90;;;;;;7551012;19;20033;-75
2024/03/06 06:32:03;;;;;;;5.53;3.63;;;3.50;99.90;;;;;;7570224;19;20060;-75
2024/03/06 06:34:35;;;;;;;4.60;3.08;;;3.50;99.90;;;;;;7563132;19;20271;-75
2024/03/06 06:37:08;;;;;;;6.80;3.90;;;3.60;99.90;;;;;;7562301;19;20022;-77
2024/03/06 06:39:41;;;;;;;5.32;3.40;;;3.60;99.90;;;;;;7563964;19;20014;-76
2024/03/06 06:42:13;;;;;;;5.72;3.90;;;3.60;99.90;;;;;;7589246;19;20401;-76
2024/03/06 06:44:45;;;;;;;4.28;3.08;;;3.60;99.90;;;;;;7588377;19;20011;-74
2024/03/06 06:47:18;;;;;;;5.60;3.55;;;3.60;99.90;;;;;;7578839;19;20019;-73
2024/03/06 06:49:50;;;;;;;8.83;4.00;;;3.50;99.90;;;;;;7594464;19;20053;-75
2024/03/06 06:52:23;;;;;;;6.80;4.20;;;3.40;99.90;;;;;;7571733;19;20018;-74
2024/03/06 06:54:57;;;;;;;8.00;4.55;;;3.40;99.90;;;;;;7586479;19;20010;-75
2024/03/06 06:57:29;;;;;;;13.80;6.53;;;3.50;99.90;;;;;;7572727;19;20099;-74
2024/03/06 07:00:10;;;;;;;15.75;8.45;;;3.40;99.90;;;;;;7577953;19;20011;-75
2024/03/06 07:02:43;;;;;;;10.63;5.45;;;3.40;99.90;;;;;;7577378;19;20029;-74
2024/03/06 07:05:15;;;;;;;4.47;2.80;;;3.50;99.90;;;;;;7543936;19;20345;-74
2024/03/06 07:07:48;;;;;;;7.30;4.80;;;3.50;99.90;;;;;;7572008;19;20025;-74
2024/03/06 07:10:23;;;;;;;6.68;4.03;;;3.60;99.90;;;;;;7564788;19;20090;-74
2024/03/06 07:12:56;;;;;;;6.10;3.47;;;3.60;99.90;;;;;;7569341;19;20022;-74
2024/03/06 07:15:29;;;;;;;10.35;4.88;;;3.50;99.90;;;;;;7550236;19;20760;-74
2024/03/06 07:18:02;;;;;;;27.95;14.20;;;3.40;99.90;;;;;;7569661;19;20842;-74
2024/03/06 07:20:34;;;;;;;6.65;4.15;;;3.30;99.90;;;;;;7565890;19;20067;-75
2024/03/06 07:23:07;;;;;;;7.40;4.60;;;3.40;99.90;;;;;;7554932;19;20674;-75
2024/03/06 07:25:39;;;;;;;11.03;5.77;;;3.30;99.90;;;;;;7555703;19;20018;-74
2024/03/06 07:28:12;;;;;;;9.05;5.60;;;3.30;99.90;;;;;;7556966;19;20030;-75
2024/03/06 07:30:44;;;;;;;12.73;6.60;;;3.30;99.90;;;;;;7540442;19;20066;-75
2024/03/06 07:33:17;;;;;;;9.63;6.28;;;3.30;99.90;;;;;;7548981;19;20015;-75
2024/03/06 07:35:50;;;;;;;8.80;5.65;;;3.40;99.90;;;;;;7566858;19;20085;-75
2024/03/06 07:38:23;;;;;;;8.32;5.25;;;3.40;99.90;;;;;;7556332;19;20045;-75
2024/03/06 07:40:55;;;;;;;9.27;5.68;;;3.40;99.90;;;;;;7567735;19;20014;-75
2024/03/06 07:43:28;;;;;;;7.47;4.32;;;3.40;99.90;;;;;;7559659;19;20022;-75
2024/03/06 07:46:00;;;;;;;13.87;7.20;;;3.30;99.90;;;;;;7555935;19;20808;-75
2024/03/06 07:48:33;;;;;;;10.38;6.43;;;3.30;99.90;;;;;;7551331;19;21430;-75
2024/03/06 07:51:05;;;;;;;14.60;6.63;;;3.30;99.90;;;;;;7572689;19;21211;-75
2024/03/06 07:53:37;;;;;;;12.63;6.10;;;3.30;99.90;;;;;;7560649;19;20271;-74
2024/03/06 07:56:13;;;;;;;7.88;4.88;;;3.30;99.90;;;;;;7579507;19;20667;-75
2024/03/06 07:58:46;;;;;;;11.18;6.43;;;3.30;99.90;;;;;;7569679;19;20022;-75
2024/03/06 08:01:19;;;;;;;14.32;6.60;;;3.40;99.90;;;;;;7549436;19;20029;-75
2024/03/06 08:03:51;;;;;;;11.80;7.37;;;3.40;99.90;;;;;;7572831;19;20018;-75
2024/03/06 08:06:25;;;;;;;10.52;6.80;;;3.40;99.90;;;;;;7586306;19;20018;-75
2024/03/06 08:08:59;;;;;;;9.25;5.45;;;3.70;99.90;;;;;;7573337;19;20039;-75
2024/03/06 08:11:34;;;;;;;7.90;5.43;;;3.70;99.90;;;;;;7582821;19;20025;-75
2024/03/06 08:14:06;;;;;;;6.13;4.50;;;3.80;99.90;;;;;;7565647;19;20022;-75
2024/03/06 08:16:39;;;;;;;10.00;5.80;;;3.80;99.90;;;;;;7553943;19;21077;-75
2024/03/06 08:19:11;;;;;;;8.15;4.70;;;3.60;99.90;;;;;;7533143;19;20030;-75
2024/03/06 08:21:44;;;;;;;9.85;5.30;;;3.70;99.90;;;;;;7568084;19;20045;-75
2024/03/06 08:24:17;;;;;;;6.07;4.20;;;3.70;99.90;;;;;;7572434;19;20019;-75
2024/03/06 08:26:50;;;;;;;6.28;3.47;;;3.60;99.90;;;;;;7573203;19;20269;-74
2024/03/06 08:29:22;;;;;;;10.77;5.55;;;3.60;99.90;;;;;;7547656;19;20022;-75
2024/03/06 08:31:57;;;;;;;10.00;5.10;;;3.60;99.90;;;;;;7561312;19;20511;-75
2024/03/06 08:34:31;;;;;;;11.05;6.07;;;3.50;99.90;;;;;;7563754;19;20026;-75
2024/03/06 08:37:04;;;;;;;10.63;5.97;;;3.60;99.90;;;;;;7560803;19;20107;-75
2024/03/06 08:39:37;;;;;;;8.07;5.03;;;3.60;99.90;;;;;;7542739;19;20015;-75
2024/03/06 08:42:12;;;;;;;8.40;5.13;;;3.60;99.90;;;;;;7577485;19;20023;-75
2024/03/06 08:44:45;;;;;;;10.70;5.95;;;3.70;99.90;;;;;;7571857;19;20102;-74
2024/03/06 08:47:18;;;;;;;8.48;6.20;;;3.80;99.90;;;;;;7564478;19;20019;-76
2024/03/06 08:49:51;;;;;;;8.80;6.03;;;3.80;99.90;;;;;;7561191;19;20056;-76
2024/03/06 08:52:23;;;;;;;8.82;5.25;;;3.90;99.90;;;;;;7596523;19;20022;-76
2024/03/06 08:54:55;;;;;;;9.60;4.97;;;3.90;99.90;;;;;;7575574;19;20019;-76
2024/03/06 08:57:29;;;;;;;7.82;5.43;;;3.90;99.90;;;;;;7583779;19;20014;-76
2024/03/06 09:00:10;;;;;;;10.02;6.22;;;3.90;99.90;;;;;;7567900;19;20025;-76
2024/03/06 09:02:43;;;;;;;10.48;6.05;;;3.80;99.90;;;;;;7587381;19;20010;-77
2024/03/06 09:05:16;;;;;;;7.93;5.37;;;3.80;99.90;;;;;;7574176;19;20014;-77
2024/03/06 09:07:48;;;;;;;7.10;4.85;;;3.80;99.90;;;;;;7565423;19;20278;-77
2024/03/06 09:10:20;;;;;;;10.77;5.93;;;3.90;99.90;;;;;;7544163;19;20018;-77
2024/03/06 09:12:53;;;;;;;9.38;6.22;;;3.90;99.90;;;;;;7556136;19;20090;-77
2024/03/06 09:15:25;;;;;;;10.57;6.78;;;3.90;99.90;;;;;;7550873;19;20740;-77
2024/03/06 09:17:58;;;;;;;6.97;4.90;;;3.90;99.90;;;;;;7546232;19;22002;-78
2024/03/06 09:20:31;;;;;;;9.30;6.47;;;4.00;99.90;;;;;;7556976;19;20014;-77
2024/03/06 09:23:04;;;;;;;11.27;6.38;;;3.90;99.90;;;;;;7554140;19;20052;-77
2024/03/06 09:25:36;;;;;;;8.95;5.60;;;3.90;99.90;;;;;;7572055;19;20042;-78
2024/03/06 09:28:09;;;;;;;7.67;5.53;;;3.90;99.90;;;;;;7560098;19;20022;-78
2024/03/06 09:30:41;;;;;;;6.28;4.15;;;4.00;99.90;;;;;;7561776;19;20920;-77
2024/03/06 09:33:14;;;;;;;6.13;4.33;;;4.10;99.90;;;;;;7568060;19;20021;-78
2024/03/06 09:35:47;;;;;;;8.82;4.15;;;4.00;99.90;;;;;;7565607;19;20019;-78
2024/03/06 09:38:19;;;;;;;7.43;5.65;;;4.10;99.90;;;;;;7573393;19;20018;-78
2024/03/06 09:40:55;;;;;;;10.05;5.70;;;4.10;99.90;;;;;;7588890;19;20018;-77
2024/03/06 09:43:27;;;;;;;7.13;5.40;;;4.00;99.90;;;;;;7579155;19;20017;-78
2024/03/06 09:46:04;;;;;;;8.38;5.25;;;4.00;99.90;;;;;;7554203;19;20044;-77
2024/03/06 09:48:41;;;;;;;9.20;6.13;;;4.10;99.90;;;;;;7582052;19;20018;-78
2024/03/06 09:51:14;;;;;;;8.60;6.40;;;4.10;99.90;;;;;;7595130;19;20011;-77
2024/03/06 09:53:49;;;;;;;7.13;4.90;;;4.10;99.90;;;;;;7578955;19;20019;-77
2024/03/06 09:56:21;;;;;;;7.90;4.97;;;4.10;99.90;;;;;;7586925;19;20098;-77
2024/03/06 09:58:53;;;;;;;7.57;4.83;;;4.10;99.90;;;;;;7579371;19;20018;-77
2024/03/06 10:01:27;;;;;;;7.25;4.97;;;4.10;99.90;;;;;;7575878;19;20825;-77
2024/03/06 10:04:17;;;;;;;11.10;5.55;;;4.10;99.90;;;;;;7574543;19;20018;-77
2024/03/06 10:06:50;;;;;;;8.95;5.40;;;4.00;99.90;;;;;;7560845;19;21003;-77
2024/03/06 10:09:22;;;;;;;10.75;6.45;;;4.10;99.90;;;;;;7555897;19;20039;-76
2024/03/06 10:11:56;;;;;;;7.60;5.10;;;4.10;99.90;;;;;;7570687;19;20062;-76
2024/03/06 10:14:32;;;;;;;11.68;7.20;;;4.10;99.90;;;;;;7576680;19;20359;-76
2024/03/06 10:17:04;;;;;;;;;;;4.00;99.90;;;;;;7559454;19;20377;-76
2024/03/06 10:19:38;;;;;;;7.10;4.03;;;4.00;99.90;;;;;;7574864;19;19922;-76
2024/03/06 10:22:10;;;;;;;;;;;4.10;99.90;;;;;;7561681;19;20044;-76
2024/03/06 10:24:42;;;;;;;15.15;7.93;;;4.10;99.90;;;;;;7567615;19;19926;-76
2024/03/06 10:27:19;;;;;;;9.23;5.38;;;4.00;99.90;;;;;;7577834;19;20011;-77
2024/03/06 10:30:06;;;;;;;11.30;6.28;;;4.10;99.90;;;;;;7582111;19;20933;-77
2024/03/06 10:32:38;;;;;;;11.70;7.50;;;4.00;99.90;;;;;;7559351;19;20090;-78
2024/03/06 10:35:19;;;;;;;15.43;9.10;;;4.00;99.90;;;;;;7574887;19;20040;-77
2024/03/06 10:37:54;;;;;;;15.35;8.43;;;4.10;99.90;;;;;;7574533;19;20014;-77
2024/03/06 10:40:29;;;;;;;13.80;9.10;;;4.10;99.90;;;;;;7576744;19;20014;-77
2024/03/06 10:43:03;;;;;;;17.02;9.75;;;4.20;99.90;;;;;;7579170;19;20018;-77
2024/03/06 10:46:10;;;;;;;13.57;9.02;;;4.30;99.90;;;;;;7589825;19;20019;-77
2024/03/06 10:48:43;;;;;;;11.50;7.57;;;4.30;99.90;;;;;;7547198;19;20914;-77
2024/03/06 10:51:17;;;;;;;16.20;9.00;;;4.40;99.90;;;;;;7538526;19;20017;-78
2024/03/06 10:53:51;;;;;;;12.60;8.60;;;4.40;99.90;;;;;;7578254;19;20955;-77
2024/03/06 10:56:24;;;;;;;14.40;9.02;;;4.40;99.90;;;;;;7563100;19;20010;-78
2024/03/06 10:58:58;;;;;;;13.00;8.57;;;4.40;99.90;;;;;;7534855;19;20014;-78
2024/03/06 11:01:32;;;;;;;16.73;9.38;;;4.30;99.90;;;;;;7570513;19;20077;-78
2024/03/06 11:04:06;;;;;;;15.65;8.57;;;4.40;99.90;;;;;;7577220;19;20033;-78
2024/03/06 11:06:39;;;;;;;12.25;7.65;;;4.40;99.90;;;;;;7599672;19;20033;-78
2024/03/06 11:09:14;;;;;;;9.73;6.07;;;4.50;99.90;;;;;;7581920;19;20029;-78
2024/03/06 11:11:52;;;;;;;10.90;6.90;;;4.50;99.90;;;;;;7577156;19;20426;-75
2024/03/06 11:14:24;;;;;;;10.80;7.00;;;4.40;99.90;;;;;;7597692;19;20564;-77
2024/03/06 11:17:03;;;;;;;10.88;6.53;;;4.50;99.90;;;;;;7580274;19;20041;-75
2024/03/06 11:20:03;;;;;;;7.95;5.07;;;4.50;99.90;;;;;;7576768;19;20014;-78
2024/03/06 11:23:09;;;;;;;12.35;6.90;;;4.50;99.90;;;;;;7588994;19;20029;-77
2024/03/06 11:25:53;;;;;;;8.50;5.78;;;4.40;99.90;;;;;;7574018;19;20015;-77
2024/03/06 11:28:30;;;;;;;9.10;5.78;;;4.40;99.90;;;;;;7574488;19;20022;-77
2024/03/06 11:31:04;;;;;;;9.02;5.97;;;4.40;99.90;;;;;;7553317;19;20014;-78
2024/03/06 11:33:39;;;;;;;15.82;7.68;;;4.40;99.90;;;;;;7570195;19;22225;-76
2024/03/06 11:36:25;;;;;;;11.20;6.78;;;4.50;99.90;;;;;;7562343;19;20673;-78
2024/03/06 11:39:06;;;;;;;12.95;7.82;;;4.50;99.90;;;;;;7533777;19;20117;-78
2024/03/06 11:41:45;;;;;;;14.50;8.07;;;4.60;99.90;;;;;;7567314;19;20015;-78
2024/03/06 11:44:26;;;;;;;12.75;6.82;;;4.60;99.90;;;;;;7588694;19;20034;-78
2024/03/06 11:47:00;;;;;;;11.20;6.82;;;4.60;99.90;;;;;;7553468;19;20105;-77
2024/03/06 11:49:33;;;;;;;12.98;7.30;;;4.60;99.90;;;;;;7573339;19;20969;-77
2024/03/06 11:52:08;;;;;;;9.20;6.10;;;4.60;99.90;;;;;;7560040;19;20033;-77
2024/03/06 11:54:40;;;;;;;9.85;6.20;;;4.70;99.90;;;;;;7521143;19;20064;-76
2024/03/06 11:57:16;;;;;;;8.52;6.10;;;4.60;99.90;;;;;;7550238;19;20018;-76
2024/03/06 11:59:48;;;;;;;10.23;6.38;;;4.70;99.90;;;;;;7572849;19;20022;-76
2024/03/06 12:02:21;;;;;;;12.65;6.75;;;4.70;99.90;;;;;;7564911;19;21014;-78
2024/03/06 12:04:54;;;;;;;;;;;4.60;99.90;;;;;;7578796;19;20014;-75
2024/03/06 12:07:27;;;;;;;10.40;7.40;;;4.60;99.90;;;;;;7590654;19;19922;-78
2024/03/06 12:09:59;;;;;;;14.88;7.75;;;4.70;99.90;;;;;;7562211;19;20018;-78
2024/03/06 12:12:32;;;;;;;9.93;7.23;;;4.70;99.90;;;;;;7578002;19;20763;-78
2024/03/06 12:15:06;;;;;;;11.65;6.65;;;4.60;99.90;;;;;;7577160;19;20295;-76
2024/03/06 12:17:47;;;;;;;12.45;7.65;;;4.70;99.90;;;;;;7576571;19;21076;-78
2024/03/06 12:20:20;;;;;;;11.45;7.15;;;4.70;99.90;;;;;;7532253;19;20021;-78
2024/03/06 12:22:53;;;;;;;11.25;6.57;;;4.80;99.90;;;;;;7545997;19;20052;-75
2024/03/06 12:25:26;;;;;;;12.13;6.40;;;4.80;99.90;;;;;;7552371;19;20452;-76
2024/03/06 12:28:10;;;;;;;12.15;7.80;;;4.80;99.90;;;;;;7546869;19;20513;-78
2024/03/06 12:30:44;;;;;;;15.27;7.72;;;4.70;99.90;;;;;;7567231;19;20022;-75
2024/03/06 12:33:18;;;;;;;12.80;8.40;;;4.70;99.90;;;;;;7567367;19;20014;-77
2024/03/06 12:36:05;;;;;;;14.93;8.40;;;4.70;99.90;;;;;;7563846;19;20048;-76
2024/03/06 12:38:37;;;;;;;13.85;8.73;;;4.80;99.90;;;;;;7564084;19;21038;-76
2024/03/06 12:41:10;;;;;;;13.55;9.15;;;4.80;99.90;;;;;;7585806;19;20025;-75
2024/03/06 12:43:43;;;;;;;12.73;8.40;;;4.70;99.90;;;;;;7586410;19;20014;-75
2024/03/06 12:46:16;;;;;;;15.20;10.23;;;4.80;99.90;;;;;;7554006;19;20018;-75
2024/03/06 12:48:49;;;;;;;13.82;8.27;;;4.70;99.90;;;;;;7575081;19;20078;-75
2024/03/06 12:51:22;;;;;;;12.90;7.53;;;4.70;99.90;;;;;;7577391;19;20018;-75
2024/03/06 12:53:54;;;;;;;11.35;7.43;;;4.70;99.90;;;;;;7566023;19;20022;-76
2024/03/06 12:56:27;;;;;;;10.00;4.95;;;4.80;99.90;;;;;;7565237;19;20026;-76
2024/03/06 12:58:59;;;;;;;9.33;5.53;;;4.70;99.90;;;;;;7547689;19;20022;-75
2024/03/06 13:01:32;;;;;;;10.52;6.00;;;4.80;99.90;;;;;;7536894;19;20283;-74
2024/03/06 13:04:06;;;;;;;10.18;6.43;;;4.80;99.90;;;;;;7546791;19;20076;-74
2024/03/06 13:06:42;;;;;;;9.13;5.22;;;4.80;99.90;;;;;;7570460;19;20611;-74
2024/03/06 13:09:15;;;;;;;7.57;5.22;;;4.80;99.90;;;;;;7538092;19;20544;-74
2024/03/06 13:11:47;;;;;;;7.93;5.27;;;4.80;99.90;;;;;;7550826;19;20018;-74
2024/03/06 13:14:20;;;;;;;7.75;5.13;;;4.90;99.90;;;;;;7575783;19;20010;-74
2024/03/06 13:16:53;;;;;;;9.95;5.45;;;4.90;99.90;;;;;;7574041;19;20006;-75
2024/03/06 13:19:26;;;;;;;10.88;5.55;;;4.90;99.90;;;;;;7562221;19;20062;-74
2024/03/06 13:21:58;;;;;;;11.20;6.20;;;4.80;99.90;;;;;;7580657;19;20020;-74
2024/03/06 13:24:35;;;;;;;9.32;5.88;;;4.80;99.90;;;;;;7556295;19;22687;-74
2024/03/06 13:27:11;;;;;;;6.80;5.05;;;4.80;99.90;;;;;;7568420;19;20018;-74